sensor_id;sensor_type;location;lat;lon;timestamp;noise_LAeq;noise_LA_min;noise_LA_max;noise_LA01;noise_LA95
64642;Laerm;59936;51.490;5.436;2023-11-21T00:01:01;41.87;37.25;50.45;;
64642;Laerm;59936;51.490;5.436;2023-11-21T00:06:10;42.09;37.53;47.85;;
64642;Laerm;59936;51.490;5.436;2023-11-21T00:08:39;41.12;37.12;51.38;;
64642;Laerm;59936;51.490;5.436;2023-11-21T00:11:08;41.52;37.65;47.79;;
64642;Laerm;59936;51.490;5.436;2023-11-21T00:13:36;41.90;38.00;48.04;;
64642;Laerm;59936;51.490;5.436;2023-11-21T00:16:05;40.35;36.17;46.78;;
64642;Laerm;59936;51.490;5.436;2023-11-21T00:18:34;40.56;35.90;46.80;;
64642;Laerm;59936;51.490;5.436;2023-11-21T00:21:02;39.35;34.91;45.45;;
64642;Laerm;59936;51.490;5.436;2023-11-21T00:23:31;38.94;34.70;45.47;;
64642;Laerm;59936;51.490;5.436;2023-11-21T00:25:59;40.58;36.63;46.98;;
64642;Laerm;59936;51.490;5.436;2023-11-21T00:28:28;39.18;34.62;45.39;;
64642;Laerm;59936;51.490;5.436;2023-11-21T00:30:57;40.09;35.73;45.32;;
64642;Laerm;59936;51.490;5.436;2023-11-21T00:33:25;41.65;37.78;47.82;;
64642;Laerm;59936;51.490;5.436;2023-11-21T00:35:54;39.59;34.95;45.87;;
64642;Laerm;59936;51.490;5.436;2023-11-21T00:38:22;40.45;36.99;48.07;;
64642;Laerm;59936;51.490;5.436;2023-11-21T00:40:51;38.92;33.35;48.23;;
64642;Laerm;59936;51.490;5.436;2023-11-21T00:43:19;38.91;35.34;43.78;;
64642;Laerm;59936;51.490;5.436;2023-11-21T00:45:48;40.26;36.35;43.88;;
64642;Laerm;59936;51.490;5.436;2023-11-21T00:48:17;39.94;35.69;45.81;;
64642;Laerm;59936;51.490;5.436;2023-11-21T00:50:45;40.32;37.22;43.11;;
64642;Laerm;59936;51.490;5.436;2023-11-21T00:53:14;40.52;35.15;45.87;;
64642;Laerm;59936;51.490;5.436;2023-11-21T00:55:42;42.61;36.49;48.22;;
64642;Laerm;59936;51.490;5.436;2023-11-21T00:58:11;40.65;36.06;46.64;;
64642;Laerm;59936;51.490;5.436;2023-11-21T01:00:39;39.78;33.79;48.97;;
64642;Laerm;59936;51.490;5.436;2023-11-21T01:03:08;38.29;33.70;44.24;;
64642;Laerm;59936;51.490;5.436;2023-11-21T01:05:37;40.16;35.14;48.35;;
64642;Laerm;59936;51.490;5.436;2023-11-21T01:08:05;42.23;37.45;46.68;;
64642;Laerm;59936;51.490;5.436;2023-11-21T01:10:34;41.82;37.25;48.05;;
64642;Laerm;59936;51.490;5.436;2023-11-21T01:13:03;41.40;37.07;46.06;;
64642;Laerm;59936;51.490;5.436;2023-11-21T01:15:31;40.73;35.01;50.91;;
64642;Laerm;59936;51.490;5.436;2023-11-21T01:18:00;40.27;36.48;47.38;;
64642;Laerm;59936;51.490;5.436;2023-11-21T01:20:29;39.93;34.10;46.61;;
64642;Laerm;59936;51.490;5.436;2023-11-21T01:22:57;39.23;34.58;44.66;;
64642;Laerm;59936;51.490;5.436;2023-11-21T01:25:26;42.14;37.72;50.82;;
64642;Laerm;59936;51.490;5.436;2023-11-21T01:27:55;40.54;37.19;45.86;;
64642;Laerm;59936;51.490;5.436;2023-11-21T01:30:24;40.24;35.33;46.94;;
64642;Laerm;59936;51.490;5.436;2023-11-21T01:32:52;40.32;35.72;44.82;;
64642;Laerm;59936;51.490;5.436;2023-11-21T01:35:21;41.73;38.10;46.67;;
64642;Laerm;59936;51.490;5.436;2023-11-21T01:37:50;41.76;37.62;46.27;;
64642;Laerm;59936;51.490;5.436;2023-11-21T01:40:18;40.31;37.28;44.54;;
64642;Laerm;59936;51.490;5.436;2023-11-21T01:42:47;40.53;37.89;44.50;;
64642;Laerm;59936;51.490;5.436;2023-11-21T01:45:16;41.27;37.56;45.60;;
64642;Laerm;59936;51.490;5.436;2023-11-21T01:47:44;39.68;36.61;44.15;;
64642;Laerm;59936;51.490;5.436;2023-11-21T01:50:16;38.84;36.11;42.47;;
64642;Laerm;59936;51.490;5.436;2023-11-21T01:52:46;40.60;37.43;44.78;;
64642;Laerm;59936;51.490;5.436;2023-11-21T01:55:17;39.83;37.38;44.51;;
64642;Laerm;59936;51.490;5.436;2023-11-21T01:57:47;40.29;36.63;44.50;;
64642;Laerm;59936;51.490;5.436;2023-11-21T02:00:16;38.56;35.72;42.79;;
64642;Laerm;59936;51.490;5.436;2023-11-21T02:02:47;39.65;36.63;46.36;;
64642;Laerm;59936;51.490;5.436;2023-11-21T02:05:18;38.46;34.75;42.91;;
64642;Laerm;59936;51.490;5.436;2023-11-21T02:07:47;38.58;34.49;43.06;;
64642;Laerm;59936;51.490;5.436;2023-11-21T02:10:16;39.81;35.55;47.54;;
64642;Laerm;59936;51.490;5.436;2023-11-21T02:12:44;39.30;36.42;43.57;;
64642;Laerm;59936;51.490;5.436;2023-11-21T02:15:14;38.21;34.40;42.10;;
64642;Laerm;59936;51.490;5.436;2023-11-21T02:17:43;37.14;33.24;42.82;;
64642;Laerm;59936;51.490;5.436;2023-11-21T02:20:13;39.46;35.16;45.12;;
64642;Laerm;59936;51.490;5.436;2023-11-21T02:22:52;37.84;33.78;42.46;;
64642;Laerm;59936;51.490;5.436;2023-11-21T02:25:21;38.32;34.90;44.44;;
64642;Laerm;59936;51.490;5.436;2023-11-21T02:27:49;38.04;35.64;41.52;;
64642;Laerm;59936;51.490;5.436;2023-11-21T02:30:18;38.81;35.67;45.91;;
64642;Laerm;59936;51.490;5.436;2023-11-21T02:32:49;37.73;33.90;44.60;;
64642;Laerm;59936;51.490;5.436;2023-11-21T02:35:19;37.06;33.22;41.18;;
64642;Laerm;59936;51.490;5.436;2023-11-21T02:37:48;38.48;35.18;42.11;;
64642;Laerm;59936;51.490;5.436;2023-11-21T02:40:17;38.59;35.87;43.29;;
64642;Laerm;59936;51.490;5.436;2023-11-21T02:42:47;37.33;34.49;45.27;;
64642;Laerm;59936;51.490;5.436;2023-11-21T02:45:15;38.18;34.43;42.78;;
64642;Laerm;59936;51.490;5.436;2023-11-21T02:47:45;39.74;36.85;44.48;;
64642;Laerm;59936;51.490;5.436;2023-11-21T02:50:13;37.99;34.35;45.85;;
64642;Laerm;59936;51.490;5.436;2023-11-21T02:52:42;37.88;33.77;43.03;;
64642;Laerm;59936;51.490;5.436;2023-11-21T02:55:10;38.60;34.73;43.35;;
64642;Laerm;59936;51.490;5.436;2023-11-21T02:57:39;38.18;34.99;42.56;;
64642;Laerm;59936;51.490;5.436;2023-11-21T03:00:08;38.12;35.35;41.61;;
64642;Laerm;59936;51.490;5.436;2023-11-21T03:02:37;39.51;35.47;44.87;;
64642;Laerm;59936;51.490;5.436;2023-11-21T03:05:06;38.99;34.68;43.34;;
64642;Laerm;59936;51.490;5.436;2023-11-21T03:07:37;39.85;36.63;44.08;;
64642;Laerm;59936;51.490;5.436;2023-11-21T03:10:08;40.07;36.42;44.97;;
64642;Laerm;59936;51.490;5.436;2023-11-21T03:12:38;40.94;37.74;44.44;;
64642;Laerm;59936;51.490;5.436;2023-11-21T03:15:07;40.96;38.10;45.82;;
64642;Laerm;59936;51.490;5.436;2023-11-21T03:17:36;40.26;36.91;45.27;;
64642;Laerm;59936;51.490;5.436;2023-11-21T03:20:05;40.20;35.97;44.50;;
64642;Laerm;59936;51.490;5.436;2023-11-21T03:22:34;39.89;35.47;47.05;;
64642;Laerm;59936;51.490;5.436;2023-11-21T03:25:03;39.92;36.02;46.06;;
64642;Laerm;59936;51.490;5.436;2023-11-21T03:27:31;40.79;36.30;45.82;;
64642;Laerm;59936;51.490;5.436;2023-11-21T03:30:00;41.08;37.97;45.78;;
64642;Laerm;59936;51.490;5.436;2023-11-21T03:32:28;41.16;38.10;45.73;;
64642;Laerm;59936;51.490;5.436;2023-11-21T03:34:57;42.73;38.83;48.65;;
64642;Laerm;59936;51.490;5.436;2023-11-21T03:37:26;42.60;37.79;49.87;;
64642;Laerm;59936;51.490;5.436;2023-11-21T03:39:56;43.20;39.09;49.55;;
64642;Laerm;59936;51.490;5.436;2023-11-21T03:42:24;41.16;37.40;47.84;;
64642;Laerm;59936;51.490;5.436;2023-11-21T03:44:53;41.02;37.33;45.51;;
64642;Laerm;59936;51.490;5.436;2023-11-21T03:47:22;42.47;38.47;49.72;;
64642;Laerm;59936;51.490;5.436;2023-11-21T03:49:50;42.42;39.41;47.16;;
64642;Laerm;59936;51.490;5.436;2023-11-21T03:52:19;42.65;38.74;47.05;;
64642;Laerm;59936;51.490;5.436;2023-11-21T03:54:47;42.39;38.91;46.54;;
64642;Laerm;59936;51.490;5.436;2023-11-21T03:57:16;41.94;38.85;47.01;;
64642;Laerm;59936;51.490;5.436;2023-11-21T03:59:45;41.80;38.62;47.90;;
64642;Laerm;59936;51.490;5.436;2023-11-21T04:02:13;42.63;38.82;46.09;;
64642;Laerm;59936;51.490;5.436;2023-11-21T04:04:42;42.85;39.70;46.48;;
64642;Laerm;59936;51.490;5.436;2023-11-21T04:07:10;43.21;40.83;47.74;;
64642;Laerm;59936;51.490;5.436;2023-11-21T04:09:40;43.64;40.51;48.68;;
64642;Laerm;59936;51.490;5.436;2023-11-21T04:12:08;44.12;41.12;47.43;;
64642;Laerm;59936;51.490;5.436;2023-11-21T04:14:38;44.17;41.52;47.56;;
64642;Laerm;59936;51.490;5.436;2023-11-21T04:17:06;43.83;40.82;50.01;;
64642;Laerm;59936;51.490;5.436;2023-11-21T04:19:35;44.28;41.75;48.25;;
64642;Laerm;59936;51.490;5.436;2023-11-21T04:22:04;45.10;42.66;48.81;;
64642;Laerm;59936;51.490;5.436;2023-11-21T04:24:32;45.70;43.01;49.30;;
64642;Laerm;59936;51.490;5.436;2023-11-21T04:27:01;45.12;42.32;48.35;;
64642;Laerm;59936;51.490;5.436;2023-11-21T04:29:29;46.40;42.20;59.99;;
64642;Laerm;59936;51.490;5.436;2023-11-21T04:31:58;46.12;42.24;49.99;;
64642;Laerm;59936;51.490;5.436;2023-11-21T04:34:26;46.64;43.70;50.87;;
64642;Laerm;59936;51.490;5.436;2023-11-21T04:36:55;46.76;43.91;50.23;;
64642;Laerm;59936;51.490;5.436;2023-11-21T04:39:23;47.15;43.87;51.47;;
64642;Laerm;59936;51.490;5.436;2023-11-21T04:41:52;46.90;43.70;54.33;;
64642;Laerm;59936;51.490;5.436;2023-11-21T04:44:21;48.22;43.37;59.90;;
64642;Laerm;59936;51.490;5.436;2023-11-21T04:46:49;47.95;44.82;56.15;;
64642;Laerm;59936;51.490;5.436;2023-11-21T04:49:18;48.15;44.67;52.33;;
64642;Laerm;59936;51.490;5.436;2023-11-21T04:51:46;47.86;44.68;51.34;;
64642;Laerm;59936;51.490;5.436;2023-11-21T04:54:15;47.99;44.28;52.48;;
64642;Laerm;59936;51.490;5.436;2023-11-21T04:56:43;47.91;45.27;50.89;;
64642;Laerm;59936;51.490;5.436;2023-11-21T04:59:12;48.01;44.99;51.35;;
64642;Laerm;59936;51.490;5.436;2023-11-21T05:01:41;48.17;45.63;52.05;;
64642;Laerm;59936;51.490;5.436;2023-11-21T05:04:09;48.07;44.88;52.33;;
64642;Laerm;59936;51.490;5.436;2023-11-21T05:06:38;47.32;44.83;51.96;;
64642;Laerm;59936;51.490;5.436;2023-11-21T05:09:06;48.07;45.26;51.61;;
64642;Laerm;59936;51.490;5.436;2023-11-21T05:11:35;48.15;45.44;52.48;;
64642;Laerm;59936;51.490;5.436;2023-11-21T05:14:03;48.50;45.90;50.97;;
64642;Laerm;59936;51.490;5.436;2023-11-21T05:16:32;48.34;45.24;64.72;;
64642;Laerm;59936;51.490;5.436;2023-11-21T05:19:01;47.69;45.15;53.53;;
64642;Laerm;59936;51.490;5.436;2023-11-21T05:21:30;47.69;45.10;53.62;;
64642;Laerm;59936;51.490;5.436;2023-11-21T05:23:58;47.90;45.44;51.96;;
64642;Laerm;59936;51.490;5.436;2023-11-21T05:26:27;47.89;45.85;52.27;;
64642;Laerm;59936;51.490;5.436;2023-11-21T05:28:56;48.52;44.22;53.85;;
64642;Laerm;59936;51.490;5.436;2023-11-21T05:31:24;47.15;45.15;52.77;;
64642;Laerm;59936;51.490;5.436;2023-11-21T05:33:53;47.85;45.57;56.57;;
64642;Laerm;59936;51.490;5.436;2023-11-21T05:36:21;46.39;44.04;48.74;;
64642;Laerm;59936;51.490;5.436;2023-11-21T05:38:50;45.95;44.33;48.02;;
64642;Laerm;59936;51.490;5.436;2023-11-21T05:41:18;46.96;43.94;54.00;;
64642;Laerm;59936;51.490;5.436;2023-11-21T05:43:47;45.99;42.91;54.26;;
64642;Laerm;59936;51.490;5.436;2023-11-21T05:46:16;45.85;43.34;55.63;;
64642;Laerm;59936;51.490;5.436;2023-11-21T05:48:44;45.33;42.50;53.15;;
64642;Laerm;59936;51.490;5.436;2023-11-21T05:51:13;45.58;42.99;54.58;;
64642;Laerm;59936;51.490;5.436;2023-11-21T05:53:41;45.41;43.28;52.73;;
64642;Laerm;59936;51.490;5.436;2023-11-21T05:56:10;45.84;43.58;54.04;;
64642;Laerm;59936;51.490;5.436;2023-11-21T05:58:39;45.56;43.12;58.72;;
64642;Laerm;59936;51.490;5.436;2023-11-21T06:01:07;45.92;43.93;50.29;;
64642;Laerm;59936;51.490;5.436;2023-11-21T06:03:37;46.31;44.33;55.96;;
64642;Laerm;59936;51.490;5.436;2023-11-21T06:06:06;61.48;44.87;72.01;;
64642;Laerm;59936;51.490;5.436;2023-11-21T06:08:40;61.22;44.75;71.71;;
64642;Laerm;59936;51.490;5.436;2023-11-21T06:11:08;47.19;44.63;54.99;;
64642;Laerm;59936;51.490;5.436;2023-11-21T06:13:37;46.42;44.57;53.62;;
64642;Laerm;59936;51.490;5.436;2023-11-21T06:16:06;47.35;44.95;53.57;;
64642;Laerm;59936;51.490;5.436;2023-11-21T06:18:34;46.63;44.55;50.71;;
64642;Laerm;59936;51.490;5.436;2023-11-21T06:21:03;46.48;44.13;52.99;;
64642;Laerm;59936;51.490;5.436;2023-11-21T06:23:32;46.85;44.99;51.31;;
64642;Laerm;59936;51.490;5.436;2023-11-21T06:26:00;47.24;45.03;53.99;;
64642;Laerm;59936;51.490;5.436;2023-11-21T06:28:29;47.73;45.29;56.60;;
64642;Laerm;59936;51.490;5.436;2023-11-21T06:30:58;48.25;45.46;58.44;;
64642;Laerm;59936;51.490;5.436;2023-11-21T06:33:27;56.05;45.41;67.66;;
64642;Laerm;59936;51.490;5.436;2023-11-21T06:35:55;50.46;45.36;59.06;;
64642;Laerm;59936;51.490;5.436;2023-11-21T06:38:24;48.89;45.49;62.56;;
64642;Laerm;59936;51.490;5.436;2023-11-21T06:40:52;49.69;45.14;64.87;;
64642;Laerm;59936;51.490;5.436;2023-11-21T06:43:21;47.42;45.16;59.84;;
64642;Laerm;59936;51.490;5.436;2023-11-21T06:45:49;46.98;44.69;57.01;;
64642;Laerm;59936;51.490;5.436;2023-11-21T06:48:18;47.41;44.79;59.73;;
64642;Laerm;59936;51.490;5.436;2023-11-21T06:50:47;53.04;45.25;71.13;;
64642;Laerm;59936;51.490;5.436;2023-11-21T06:53:15;46.49;44.67;49.80;;
64642;Laerm;59936;51.490;5.436;2023-11-21T06:55:44;47.26;45.19;52.71;;
64642;Laerm;59936;51.490;5.436;2023-11-21T06:58:12;48.89;45.50;67.19;;
64642;Laerm;59936;51.490;5.436;2023-11-21T07:00:41;52.04;45.66;74.91;;
64642;Laerm;59936;51.490;5.436;2023-11-21T07:03:10;47.99;45.22;64.16;;
64642;Laerm;59936;51.490;5.436;2023-11-21T07:05:38;47.84;45.65;57.09;;
64642;Laerm;59936;51.490;5.436;2023-11-21T07:08:10;62.70;45.49;74.80;;
64642;Laerm;59936;51.490;5.436;2023-11-21T07:10:39;52.18;46.02;66.82;;
64642;Laerm;59936;51.490;5.436;2023-11-21T07:13:13;57.05;45.67;69.00;;
64642;Laerm;59936;51.490;5.436;2023-11-21T07:15:42;54.07;46.79;62.80;;
64642;Laerm;59936;51.490;5.436;2023-11-21T07:18:10;48.92;45.84;67.43;;
64642;Laerm;59936;51.490;5.436;2023-11-21T07:20:39;49.03;46.16;56.34;;
64642;Laerm;59936;51.490;5.436;2023-11-21T07:23:08;48.75;46.51;58.14;;
64642;Laerm;59936;51.490;5.436;2023-11-21T07:25:36;48.34;46.13;62.63;;
64642;Laerm;59936;51.490;5.436;2023-11-21T07:28:05;48.40;45.59;57.08;;
64642;Laerm;59936;51.490;5.436;2023-11-21T07:30:33;48.39;45.53;59.93;;
64642;Laerm;59936;51.490;5.436;2023-11-21T07:33:02;47.73;45.45;52.31;;
64642;Laerm;59936;51.490;5.436;2023-11-21T07:35:30;47.96;45.59;63.89;;
64642;Laerm;59936;51.490;5.436;2023-11-21T07:37:59;49.67;45.24;60.99;;
64642;Laerm;59936;51.490;5.436;2023-11-21T07:40:28;50.26;45.65;63.59;;
64642;Laerm;59936;51.490;5.436;2023-11-21T07:42:56;47.79;45.80;52.91;;
64642;Laerm;59936;51.490;5.436;2023-11-21T07:45:25;48.21;46.15;53.32;;
64642;Laerm;59936;51.490;5.436;2023-11-21T07:47:54;48.39;46.17;54.34;;
64642;Laerm;59936;51.490;5.436;2023-11-21T07:50:23;48.66;46.56;52.79;;
64642;Laerm;59936;51.490;5.436;2023-11-21T07:52:51;49.41;46.86;56.12;;
64642;Laerm;59936;51.490;5.436;2023-11-21T07:55:20;50.95;48.61;57.01;;
64642;Laerm;59936;51.490;5.436;2023-11-21T07:57:49;49.70;47.34;59.21;;
64642;Laerm;59936;51.490;5.436;2023-11-21T08:00:18;48.54;45.51;52.40;;
64642;Laerm;59936;51.490;5.436;2023-11-21T08:02:46;48.62;45.47;51.58;;
64642;Laerm;59936;51.490;5.436;2023-11-21T08:05:15;47.83;45.17;51.57;;
64642;Laerm;59936;51.490;5.436;2023-11-21T08:07:43;47.31;45.12;58.10;;
64642;Laerm;59936;51.490;5.436;2023-11-21T08:10:12;48.76;46.23;56.36;;
64642;Laerm;59936;51.490;5.436;2023-11-21T08:12:41;48.47;45.83;53.92;;
64642;Laerm;59936;51.490;5.436;2023-11-21T08:15:09;48.20;45.20;53.02;;
64642;Laerm;59936;51.490;5.436;2023-11-21T08:17:38;48.75;45.37;55.81;;
64642;Laerm;59936;51.490;5.436;2023-11-21T08:20:07;47.42;44.10;57.09;;
64642;Laerm;59936;51.490;5.436;2023-11-21T08:22:36;47.26;43.92;56.64;;
64642;Laerm;59936;51.490;5.436;2023-11-21T08:25:05;46.07;44.06;57.23;;
64642;Laerm;59936;51.490;5.436;2023-11-21T08:27:34;45.92;43.15;53.93;;
64642;Laerm;59936;51.490;5.436;2023-11-21T08:30:03;47.77;43.86;58.55;;
64642;Laerm;59936;51.490;5.436;2023-11-21T08:32:32;55.72;44.95;68.56;;
64642;Laerm;59936;51.490;5.436;2023-11-21T08:35:00;46.45;44.36;57.68;;
64642;Laerm;59936;51.490;5.436;2023-11-21T08:37:34;60.73;44.86;74.34;;
64642;Laerm;59936;51.490;5.436;2023-11-21T08:40:06;48.22;45.13;65.82;;
64642;Laerm;59936;51.490;5.436;2023-11-21T08:42:35;48.76;45.18;56.51;;
64642;Laerm;59936;51.490;5.436;2023-11-21T08:45:05;58.71;46.24;70.05;;
64642;Laerm;59936;51.490;5.436;2023-11-21T08:47:33;51.86;45.46;66.57;;
64642;Laerm;59936;51.490;5.436;2023-11-21T08:50:02;58.38;45.66;71.53;;
64642;Laerm;59936;51.490;5.436;2023-11-21T08:52:31;46.45;44.19;52.11;;
64642;Laerm;59936;51.490;5.436;2023-11-21T08:55:00;46.28;43.86;51.83;;
64642;Laerm;59936;51.490;5.436;2023-11-21T08:57:28;46.66;44.26;53.93;;
64642;Laerm;59936;51.490;5.436;2023-11-21T08:59:57;46.92;44.94;50.49;;
64642;Laerm;59936;51.490;5.436;2023-11-21T09:02:26;47.67;44.62;67.96;;
64642;Laerm;59936;51.490;5.436;2023-11-21T09:04:54;52.58;44.25;72.04;;
64642;Laerm;59936;51.490;5.436;2023-11-21T09:07:23;46.48;43.83;52.06;;
64642;Laerm;59936;51.490;5.436;2023-11-21T09:09:51;45.22;42.67;53.34;;
64642;Laerm;59936;51.490;5.436;2023-11-21T09:12:20;47.31;42.48;54.78;;
64642;Laerm;59936;51.490;5.436;2023-11-21T09:14:49;45.27;40.83;58.07;;
64642;Laerm;59936;51.490;5.436;2023-11-21T09:17:17;45.93;39.90;68.10;;
64642;Laerm;59936;51.490;5.436;2023-11-21T09:19:46;42.27;40.26;47.27;;
64642;Laerm;59936;51.490;5.436;2023-11-21T09:22:15;42.57;40.44;50.38;;
64642;Laerm;59936;51.490;5.436;2023-11-21T09:24:44;42.99;39.59;52.15;;
64642;Laerm;59936;51.490;5.436;2023-11-21T09:27:12;42.05;39.86;55.46;;
64642;Laerm;59936;51.490;5.436;2023-11-21T09:29:41;42.93;40.86;55.77;;
64642;Laerm;59936;51.490;5.436;2023-11-21T09:32:09;43.94;41.87;46.06;;
64642;Laerm;59936;51.490;5.436;2023-11-21T09:34:38;44.62;42.50;49.13;;
64642;Laerm;59936;51.490;5.436;2023-11-21T09:37:07;45.21;41.30;55.11;;
64642;Laerm;59936;51.490;5.436;2023-11-21T09:39:36;43.41;40.62;51.83;;
64642;Laerm;59936;51.490;5.436;2023-11-21T09:42:11;42.82;40.37;55.50;;
64642;Laerm;59936;51.490;5.436;2023-11-21T09:47:14;44.26;41.69;57.80;;
64642;Laerm;59936;51.490;5.436;2023-11-21T09:49:49;43.66;41.68;48.41;;
64642;Laerm;59936;51.490;5.436;2023-11-21T09:52:25;44.00;40.46;62.34;;
64642;Laerm;59936;51.490;5.436;2023-11-21T09:54:55;47.62;40.99;63.25;;
64642;Laerm;59936;51.490;5.436;2023-11-21T09:57:25;43.80;41.26;51.05;;
64642;Laerm;59936;51.490;5.436;2023-11-21T09:59:54;43.80;40.84;53.15;;
64642;Laerm;59936;51.490;5.436;2023-11-21T10:02:27;42.27;40.10;48.03;;
64642;Laerm;59936;51.490;5.436;2023-11-21T10:04:55;41.94;39.86;48.34;;
64642;Laerm;59936;51.490;5.436;2023-11-21T10:07:24;46.78;39.52;64.42;;
64642;Laerm;59936;51.490;5.436;2023-11-21T10:09:55;42.85;39.33;61.26;;
64642;Laerm;59936;51.490;5.436;2023-11-21T10:12:24;43.92;39.10;59.30;;
64642;Laerm;59936;51.490;5.436;2023-11-21T10:14:58;42.89;39.56;52.86;;
64642;Laerm;59936;51.490;5.436;2023-11-21T10:17:31;41.82;39.35;53.17;;
64642;Laerm;59936;51.490;5.436;2023-11-21T10:20:02;42.52;39.21;60.43;;
64642;Laerm;59936;51.490;5.436;2023-11-21T10:22:31;41.39;39.56;50.01;;
64642;Laerm;59936;51.490;5.436;2023-11-21T10:25:00;41.11;38.89;47.46;;
64642;Laerm;59936;51.490;5.436;2023-11-21T10:27:29;42.30;39.92;56.63;;
64642;Laerm;59936;51.490;5.436;2023-11-21T10:29:57;41.96;40.12;46.98;;
64642;Laerm;59936;51.490;5.436;2023-11-21T10:32:28;43.77;40.75;53.17;;
64642;Laerm;59936;51.490;5.436;2023-11-21T10:34:57;44.19;41.54;53.70;;
64642;Laerm;59936;51.490;5.436;2023-11-21T10:37:26;60.98;41.23;73.49;;
64642;Laerm;59936;51.490;5.436;2023-11-21T10:39:58;45.35;41.69;58.26;;
64642;Laerm;59936;51.490;5.436;2023-11-21T10:42:27;46.89;43.03;68.83;;
64642;Laerm;59936;51.490;5.436;2023-11-21T10:44:56;46.00;41.53;55.58;;
64642;Laerm;59936;51.490;5.436;2023-11-21T10:47:31;54.90;41.40;69.07;;
64642;Laerm;59936;51.490;5.436;2023-11-21T10:50:00;57.32;43.22;79.17;;
64642;Laerm;59936;51.490;5.436;2023-11-21T10:52:29;46.24;44.18;49.33;;
64642;Laerm;59936;51.490;5.436;2023-11-21T10:54:57;46.33;43.88;59.40;;
64642;Laerm;59936;51.490;5.436;2023-11-21T10:57:26;44.54;42.17;57.06;;
64642;Laerm;59936;51.490;5.436;2023-11-21T10:59:56;47.34;40.92;65.10;;
64642;Laerm;59936;51.490;5.436;2023-11-21T11:02:25;43.27;40.28;47.77;;
64642;Laerm;59936;51.490;5.436;2023-11-21T11:04:54;47.98;44.13;54.56;;
64642;Laerm;59936;51.490;5.436;2023-11-21T11:07:27;48.33;44.69;53.49;;
64642;Laerm;59936;51.490;5.436;2023-11-21T11:09:58;46.78;43.90;50.87;;
64642;Laerm;59936;51.490;5.436;2023-11-21T11:12:28;47.93;44.38;58.36;;
64642;Laerm;59936;51.490;5.436;2023-11-21T11:14:57;48.33;45.07;61.46;;
64642;Laerm;59936;51.490;5.436;2023-11-21T11:17:26;49.78;45.21;60.86;;
64642;Laerm;59936;51.490;5.436;2023-11-21T11:19:55;48.40;45.87;57.87;;
64642;Laerm;59936;51.490;5.436;2023-11-21T11:22:44;48.92;45.90;58.80;;
64642;Laerm;59936;51.490;5.436;2023-11-21T11:25:41;60.61;46.07;74.71;;
64642;Laerm;59936;51.490;5.436;2023-11-21T11:28:22;48.28;45.12;62.57;;
64642;Laerm;59936;51.490;5.436;2023-11-21T11:33:53;48.81;46.20;54.90;;
64642;Laerm;59936;51.490;5.436;2023-11-21T11:36:48;47.68;45.51;51.11;;
64642;Laerm;59936;51.490;5.436;2023-11-21T11:42:03;49.52;43.83;61.77;;
64642;Laerm;59936;51.490;5.436;2023-11-21T11:47:20;46.10;43.08;55.09;;
64642;Laerm;59936;51.490;5.436;2023-11-21T11:50:10;46.48;44.34;54.91;;
64642;Laerm;59936;51.490;5.436;2023-11-21T11:52:49;48.50;45.47;55.83;;
64642;Laerm;59936;51.490;5.436;2023-11-21T11:55:21;48.74;45.44;52.04;;
64642;Laerm;59936;51.490;5.436;2023-11-21T11:57:54;49.53;46.64;57.87;;
64642;Laerm;59936;51.490;5.436;2023-11-21T12:02:57;49.30;44.76;70.81;;
64642;Laerm;59936;51.490;5.436;2023-11-21T12:05:26;47.78;44.65;51.94;;
64642;Laerm;59936;51.490;5.436;2023-11-21T12:07:57;48.75;46.48;52.04;;
64642;Laerm;59936;51.490;5.436;2023-11-21T12:10:38;48.47;44.78;55.72;;
64642;Laerm;59936;51.490;5.436;2023-11-21T12:13:09;48.20;44.23;59.40;;
64642;Laerm;59936;51.490;5.436;2023-11-21T12:15:38;48.69;45.68;52.23;;
64642;Laerm;59936;51.490;5.436;2023-11-21T12:18:07;48.10;45.95;52.21;;
64642;Laerm;59936;51.490;5.436;2023-11-21T12:20:39;56.07;45.96;71.19;;
64642;Laerm;59936;51.490;5.436;2023-11-21T12:23:08;49.01;46.04;56.44;;
64642;Laerm;59936;51.490;5.436;2023-11-21T12:25:37;49.31;46.71;56.84;;
64642;Laerm;59936;51.490;5.436;2023-11-21T12:28:05;49.21;45.56;56.45;;
64642;Laerm;59936;51.490;5.436;2023-11-21T12:30:39;55.29;45.95;67.18;;
64642;Laerm;59936;51.490;5.436;2023-11-21T12:33:08;49.77;46.39;60.59;;
64642;Laerm;59936;51.490;5.436;2023-11-21T12:35:37;60.53;46.92;73.12;;
64642;Laerm;59936;51.490;5.436;2023-11-21T12:38:06;49.25;46.46;54.91;;
64642;Laerm;59936;51.490;5.436;2023-11-21T12:40:34;48.33;45.99;54.61;;
64642;Laerm;59936;51.490;5.436;2023-11-21T12:43:03;57.31;45.59;68.88;;
64642;Laerm;59936;51.490;5.436;2023-11-21T12:45:32;48.08;45.24;52.57;;
64642;Laerm;59936;51.490;5.436;2023-11-21T12:48:05;48.89;46.37;52.03;;
64642;Laerm;59936;51.490;5.436;2023-11-21T12:50:35;49.17;46.86;52.89;;
64642;Laerm;59936;51.490;5.436;2023-11-21T12:53:07;49.27;46.73;61.59;;
64642;Laerm;59936;51.490;5.436;2023-11-21T12:55:36;50.46;47.60;54.91;;
64642;Laerm;59936;51.490;5.436;2023-11-21T12:58:09;51.05;48.15;54.34;;
64642;Laerm;59936;51.490;5.436;2023-11-21T13:00:45;50.61;47.36;62.98;;
64642;Laerm;59936;51.490;5.436;2023-11-21T13:03:15;51.02;47.28;56.16;;
64642;Laerm;59936;51.490;5.436;2023-11-21T13:05:47;51.32;48.68;55.44;;
64642;Laerm;59936;51.490;5.436;2023-11-21T13:08:16;50.64;47.53;54.91;;
64642;Laerm;59936;51.490;5.436;2023-11-21T13:10:46;49.44;46.15;52.82;;
64642;Laerm;59936;51.490;5.436;2023-11-21T13:13:17;48.71;46.30;53.19;;
64642;Laerm;59936;51.490;5.436;2023-11-21T13:15:54;49.39;45.94;53.48;;
64642;Laerm;59936;51.490;5.436;2023-11-21T13:18:24;49.06;46.03;52.50;;
64642;Laerm;59936;51.490;5.436;2023-11-21T13:20:59;48.70;45.97;53.26;;
64642;Laerm;59936;51.490;5.436;2023-11-21T13:23:27;49.82;46.10;66.09;;
64642;Laerm;59936;51.490;5.436;2023-11-21T13:25:56;47.16;45.10;50.17;;
64642;Laerm;59936;51.490;5.436;2023-11-21T13:28:25;49.05;45.48;55.28;;
64642;Laerm;59936;51.490;5.436;2023-11-21T13:30:53;51.01;45.70;68.81;;
64642;Laerm;59936;51.490;5.436;2023-11-21T13:33:22;47.68;45.49;55.93;;
64642;Laerm;59936;51.490;5.436;2023-11-21T13:35:50;48.36;45.90;52.05;;
64642;Laerm;59936;51.490;5.436;2023-11-21T13:38:19;46.76;44.70;53.18;;
64642;Laerm;59936;51.490;5.436;2023-11-21T13:40:50;48.82;45.01;53.92;;
64642;Laerm;59936;51.490;5.436;2023-11-21T13:43:23;50.35;46.20;58.88;;
64642;Laerm;59936;51.490;5.436;2023-11-21T13:45:53;49.87;46.68;53.83;;
64642;Laerm;59936;51.490;5.436;2023-11-21T13:48:22;59.71;46.78;72.61;;
64642;Laerm;59936;51.490;5.436;2023-11-21T13:50:51;48.87;46.76;51.78;;
64642;Laerm;59936;51.490;5.436;2023-11-21T13:53:19;50.59;47.56;54.11;;
64642;Laerm;59936;51.490;5.436;2023-11-21T13:55:52;50.71;48.24;56.52;;
64642;Laerm;59936;51.490;5.436;2023-11-21T13:58:26;78.33;49.43;92.79;;
64642;Laerm;59936;51.490;5.436;2023-11-21T14:00:55;56.65;46.94;71.96;;
64642;Laerm;59936;51.490;5.436;2023-11-21T14:03:24;59.29;47.98;72.92;;
64642;Laerm;59936;51.490;5.436;2023-11-21T14:05:52;48.76;45.96;61.32;;
64642;Laerm;59936;51.490;5.436;2023-11-21T14:08:24;54.37;47.45;68.67;;
64642;Laerm;59936;51.490;5.436;2023-11-21T14:10:53;52.05;46.69;68.32;;
64642;Laerm;59936;51.490;5.436;2023-11-21T14:13:21;50.29;47.01;54.51;;